Time;durP1;ratioP1;P1;durP2;ratioP2;P2;SDS_P1;SDS_P2;PMS_P1;PMS_P2;Temp;Humidity;BMP_temperature;BMP_pressure;BME280_temperature;BME280_humidity;BME280_pressure;Samples;Min_cycle;Max_cycle;Signal;HPM_P1;HPM_P2
2023/11/26 00:02:22;;;;;;;0.90;0.82;;;-3276.10;98.70;;;;;;5005921;28;20102;-77
2023/11/26 00:04:47;;;;;;;1.50;0.98;;;-3276.00;98.80;;;;;;5009738;28;20394;-77
2023/11/26 00:07:13;;;;;;;1.30;0.65;;;-3276.10;98.90;;;;;;5008590;28;20030;-77
2023/11/26 00:09:39;;;;;;;1.38;0.70;;;-3276.00;98.90;;;;;;5010825;28;20471;-77
2023/11/26 00:12:07;;;;;;;1.75;0.85;;;-3276.00;98.90;;;;;;5007543;28;20049;-77
2023/11/26 00:14:41;;;;;;;0.85;0.65;;;-3276.00;98.90;;;;;;5011240;28;20034;-77
2023/11/26 00:17:07;;;;;;;1.25;0.60;;;-3276.00;98.90;;;;;;5016982;28;20168;-77
2023/11/26 00:19:35;;;;;;;0.60;0.60;;;-3276.00;98.80;;;;;;5013742;28;20109;-77
2023/11/26 00:22:01;;;;;;;0.73;0.60;;;-3275.90;98.80;;;;;;5011681;28;20041;-77
2023/11/26 00:24:27;;;;;;;2.67;0.80;;;-3275.90;98.90;;;;;;5011694;28;20363;-77
2023/11/26 00:26:53;;;;;;;0.73;0.73;;;-3275.90;98.90;;;;;;5012938;28;20036;-77
2023/11/26 00:29:18;;;;;;;0.95;0.63;;;-3275.90;98.90;;;;;;5007593;28;20038;-77
2023/11/26 00:31:44;;;;;;;1.30;1.20;;;-3275.80;98.90;;;;;;5012975;28;20049;-77
2023/11/26 00:34:09;;;;;;;2.58;1.08;;;-3275.70;98.90;;;;;;5017898;28;20028;-77
2023/11/26 00:36:35;;;;;;;1.67;0.93;;;-3275.60;98.90;;;;;;5016335;28;20042;-77
2023/11/26 00:39:02;;;;;;;0.98;0.65;;;-3275.60;98.90;;;;;;5014266;28;20034;-77
2023/11/26 00:41:27;;;;;;;1.02;0.80;;;-3275.50;98.90;;;;;;5017132;28;20101;-76
2023/11/26 00:43:53;;;;;;;1.33;0.98;;;-3275.50;99.00;;;;;;5015961;28;20072;-77
2023/11/26 00:46:18;;;;;;;2.35;0.88;;;-3275.40;99.00;;;;;;5021496;28;20085;-77
2023/11/26 00:48:44;;;;;;;2.40;0.77;;;-3275.50;99.10;;;;;;5019126;28;20455;-77
2023/11/26 00:51:17;;;;;;;0.75;0.63;;;-3275.40;99.10;;;;;;5021947;28;20073;-77
2023/11/26 00:53:43;;;;;;;1.08;0.73;;;-3275.40;99.00;;;;;;5022864;28;20025;-77
2023/11/26 00:56:09;;;;;;;1.88;0.95;;;-3275.30;99.10;;;;;;5026431;28;20029;-77
2023/11/26 00:58:34;;;;;;;1.60;0.80;;;-3275.30;99.20;;;;;;5026852;28;20026;-77
2023/11/26 01:01:00;;;;;;;2.28;1.13;;;-3275.30;99.20;;;;;;5022511;28;20510;-77
2023/11/26 01:03:26;;;;;;;2.60;1.05;;;-3275.30;99.20;;;;;;5022311;28;20029;-77
2023/11/26 01:05:52;;;;;;;2.10;1.00;;;-3275.30;99.30;;;;;;5021923;28;20089;-76
2023/11/26 01:08:17;;;;;;;2.38;0.98;;;-3275.40;99.30;;;;;;5023937;28;20066;-76
2023/11/26 01:10:42;;;;;;;0.75;0.65;;;-3275.40;99.40;;;;;;5022540;28;20045;-77
2023/11/26 01:13:08;;;;;;;1.58;1.00;;;-3275.40;99.50;;;;;;5021834;28;20034;-76
2023/11/26 01:15:34;;;;;;;1.85;0.80;;;-3275.50;99.40;;;;;;5025801;28;20049;-76
2023/11/26 01:17:59;;;;;;;2.10;0.70;;;-3275.50;99.40;;;;;;5021510;28;20037;-77
2023/11/26 01:20:24;;;;;;;1.25;0.73;;;-3275.40;99.40;;;;;;5023739;28;20061;-77
2023/11/26 01:22:50;;;;;;;3.03;0.95;;;-3275.40;99.30;;;;;;5025017;28;20073;-76
2023/11/26 01:25:15;;;;;;;1.65;1.02;;;-3275.30;99.30;;;;;;5026632;28;20463;-77
2023/11/26 01:27:41;;;;;;;2.13;0.80;;;-3275.30;99.30;;;;;;5022806;28;20038;-76
2023/11/26 01:30:07;;;;;;;0.70;0.70;;;-3275.30;99.40;;;;;;5022169;28;20042;-77
2023/11/26 01:32:35;;;;;;;1.30;0.80;;;-3275.30;99.50;;;;;;5019837;28;20086;-76
2023/11/26 01:35:02;;;;;;;1.77;1.05;;;-3275.30;99.40;;;;;;5023547;28;20044;-77
2023/11/26 01:37:27;;;;;;;1.92;1.35;;;-3275.30;99.50;;;;;;5024908;28;20030;-77
2023/11/26 01:39:53;;;;;;;1.95;0.90;;;-3275.30;99.40;;;;;;5024253;28;20033;-77
2023/11/26 01:42:18;;;;;;;0.85;0.60;;;-3275.30;99.40;;;;;;5024252;28;20026;-76
2023/11/26 01:44:44;;;;;;;2.22;0.70;;;-3275.30;99.50;;;;;;5025223;28;20038;-77
2023/11/26 01:47:09;;;;;;;0.90;0.70;;;-3275.30;99.40;;;;;;5022237;28;20046;-77
2023/11/26 01:49:36;;;;;;;1.20;0.68;;;-3275.30;99.50;;;;;;5024135;28;20033;-76
2023/11/26 01:52:06;;;;;;;1.83;1.05;;;-3275.30;99.50;;;;;;5021372;28;20493;-77
2023/11/26 01:54:35;;;;;;;1.57;0.97;;;-3275.30;99.50;;;;;;5026087;28;20029;-76
2023/11/26 01:57:02;;;;;;;0.75;0.70;;;-3275.30;99.50;;;;;;5026598;28;20034;-77
2023/11/26 01:59:29;;;;;;;1.92;0.60;;;-3275.20;99.50;;;;;;5024983;28;20105;-76
2023/11/26 02:01:55;;;;;;;0.57;0.55;;;-3275.30;99.50;;;;;;5020512;28;20037;-76
2023/11/26 02:04:20;;;;;;;3.75;1.10;;;-3275.30;99.60;;;;;;5024380;28;20048;-76
2023/11/26 02:06:50;;;;;;;3.83;1.00;;;-3275.30;99.50;;;;;;5021836;28;20065;-77
2023/11/26 02:09:17;;;;;;;1.17;0.73;;;-3275.30;99.50;;;;;;5025026;28;20033;-76
2023/11/26 02:11:46;;;;;;;1.80;0.98;;;-3275.20;99.50;;;;;;5024630;28;20042;-76
2023/11/26 02:14:12;;;;;;;2.28;0.90;;;-3275.20;99.40;;;;;;5024350;28;20057;-79
2023/11/26 02:16:38;;;;;;;1.08;0.70;;;-3275.20;99.50;;;;;;5024296;28;20022;-79
2023/11/26 02:19:23;;;;;;;1.15;0.73;;;-3275.20;99.50;;;;;;5025980;28;20034;-76
2023/11/26 02:21:48;;;;;;;1.08;0.60;;;-3275.20;99.40;;;;;;5021809;28;20026;-77
2023/11/26 02:24:16;;;;;;;1.00;0.70;;;-3275.20;99.40;;;;;;5027420;28;20052;-79
2023/11/26 02:26:41;;;;;;;2.05;0.90;;;-3275.20;99.40;;;;;;5027580;28;20038;-77
2023/11/26 02:29:08;;;;;;;1.17;0.90;;;-3275.10;99.30;;;;;;5025839;28;20052;-77
2023/11/26 02:31:33;;;;;;;2.13;0.70;;;-3275.10;99.30;;;;;;5025915;28;20041;-76
2023/11/26 02:33:59;;;;;;;0.88;0.70;;;-3275.00;99.20;;;;;;5026714;28;20034;-77
2023/11/26 02:36:25;;;;;;;1.25;0.80;;;-3275.00;99.20;;;;;;5027998;28;20030;-76
2023/11/26 02:38:52;;;;;;;0.80;0.68;;;-3275.00;99.30;;;;;;5028209;28;20037;-77
2023/11/26 02:41:18;;;;;;;2.10;0.98;;;-3274.90;99.10;;;;;;5028093;28;20052;-77
2023/11/26 02:43:44;;;;;;;1.27;0.80;;;-3274.90;99.20;;;;;;5024341;28;20085;-77
2023/11/26 02:46:09;;;;;;;1.13;0.80;;;-3274.80;99.10;;;;;;5015976;28;20118;-77
2023/11/26 02:48:34;;;;;;;2.33;0.85;;;-3274.80;99.10;;;;;;5008134;28;20121;-77
2023/11/26 02:51:00;;;;;;;1.60;0.85;;;-3274.80;99.20;;;;;;5013599;28;20053;-77
2023/11/26 02:53:25;;;;;;;1.30;0.70;;;-3274.70;99.10;;;;;;5014422;28;20374;-77
2023/11/26 02:55:51;;;;;;;1.23;0.80;;;-3274.70;99.10;;;;;;5013510;28;20034;-77
2023/11/26 02:58:16;;;;;;;1.65;0.93;;;-3274.70;99.20;;;;;;5013296;28;20041;-77
2023/11/26 03:00:42;;;;;;;1.23;0.90;;;-3274.60;99.20;;;;;;5010621;28;20025;-78
2023/11/26 03:03:10;;;;;;;1.05;0.75;;;-3274.60;99.10;;;;;;5009757;28;20034;-77
2023/11/26 03:05:37;;;;;;;1.88;1.00;;;-3274.60;99.20;;;;;;5013253;28;20112;-77
2023/11/26 03:08:20;;;;;;;0.73;0.73;;;-3274.50;99.20;;;;;;5011233;28;20044;-77
2023/11/26 03:13:33;;;;;;;1.00;0.75;;;-3274.40;99.30;;;;;;5009677;28;20041;-78
2023/11/26 03:15:59;;;;;;;1.58;1.10;;;-3274.40;99.30;;;;;;5006619;28;20463;-78
2023/11/26 03:18:25;;;;;;;2.03;1.60;;;-3274.40;99.30;;;;;;5008684;28;20037;-77
2023/11/26 03:20:52;;;;;;;1.40;0.77;;;-3274.40;99.40;;;;;;5012575;28;20037;-77
2023/11/26 03:23:19;;;;;;;2.38;1.38;;;-3274.30;99.30;;;;;;5011966;28;20030;-77
2023/11/26 03:25:45;;;;;;;1.65;0.77;;;-3274.40;99.30;;;;;;5015125;28;20026;-77
2023/11/26 03:28:13;;;;;;;1.38;0.77;;;-3274.30;99.40;;;;;;5008870;28;20037;-78
2023/11/26 03:30:38;;;;;;;1.63;1.05;;;-3274.30;99.40;;;;;;5007288;28;20491;-77
2023/11/26 03:33:05;;;;;;;2.95;1.10;;;-3274.30;99.40;;;;;;5008204;28;20053;-78
2023/11/26 03:35:31;;;;;;;1.67;1.15;;;-3274.20;99.30;;;;;;5011143;28;20034;-78
2023/11/26 03:37:56;;;;;;;0.88;0.65;;;-3274.30;99.50;;;;;;5005808;28;20034;-77
2023/11/26 03:40:23;;;;;;;2.42;0.90;;;-3274.30;99.60;;;;;;5010143;28;20120;-77
2023/11/26 03:42:49;;;;;;;1.35;0.80;;;-3274.40;99.60;;;;;;5011019;28;20084;-77
2023/11/26 03:45:15;;;;;;;1.55;1.02;;;-3274.40;99.60;;;;;;5009280;28;20038;-77
2023/11/26 03:47:41;;;;;;;1.55;0.93;;;-3274.30;99.40;;;;;;5008090;28;20057;-77
2023/11/26 03:50:09;;;;;;;2.38;1.13;;;-3274.30;99.50;;;;;;5010346;28;20089;-77
2023/11/26 03:52:35;;;;;;;1.85;0.88;;;-3274.20;99.40;;;;;;5009772;28;20072;-77
2023/11/26 03:55:01;;;;;;;3.60;1.15;;;-3274.30;99.40;;;;;;5009288;28;20057;-77
2023/11/26 03:57:26;;;;;;;2.05;1.00;;;-3274.30;99.50;;;;;;5008937;28;20091;-77
2023/11/26 03:59:52;;;;;;;1.92;1.05;;;-3274.40;99.60;;;;;;5012281;28;20034;-77
2023/11/26 04:02:18;;;;;;;1.83;1.02;;;-3274.60;99.70;;;;;;5004576;28;20434;-77
2023/11/26 04:04:45;;;;;;;2.28;0.82;;;-3274.60;99.50;;;;;;5008119;28;20029;-77
2023/11/26 04:07:11;;;;;;;0.73;0.73;;;-3274.60;99.50;;;;;;5011179;28;20393;-78
2023/11/26 04:09:37;;;;;;;1.92;0.80;;;-3274.70;99.50;;;;;;5006506;28;20363;-77
2023/11/26 04:12:03;;;;;;;1.20;0.90;;;-3274.70;99.60;;;;;;5007618;28;20041;-77
2023/11/26 04:14:34;;;;;;;1.80;1.00;;;-3274.70;99.60;;;;;;5009599;28;20040;-77
2023/11/26 04:17:00;;;;;;;1.48;1.05;;;-3274.70;99.50;;;;;;5023561;28;20042;-77
2023/11/26 04:19:25;;;;;;;1.35;1.02;;;-3274.80;99.70;;;;;;5009341;28;20463;-77
2023/11/26 04:21:51;;;;;;;1.50;1.00;;;-3274.80;99.50;;;;;;5008525;28;20030;-78
2023/11/26 04:24:18;;;;;;;2.78;1.23;;;-3274.90;99.70;;;;;;5009859;28;20038;-77
2023/11/26 04:26:44;;;;;;;2.33;1.40;;;-3275.00;99.70;;;;;;5010299;28;20486;-77
2023/11/26 04:29:10;;;;;;;1.15;0.85;;;-3275.00;99.60;;;;;;5015203;28;20030;-77
2023/11/26 04:31:36;;;;;;;1.67;0.85;;;-3275.00;99.60;;;;;;5004200;28;20045;-77
2023/11/26 04:34:02;;;;;;;1.58;0.90;;;-3275.00;99.50;;;;;;5008660;28;20030;-77
2023/11/26 04:36:28;;;;;;;0.93;0.70;;;-3275.10;99.60;;;;;;5010694;28;20157;-77
2023/11/26 04:38:54;;;;;;;1.65;1.00;;;-3275.10;99.60;;;;;;5008525;28;20036;-77
2023/11/26 04:41:21;;;;;;;1.17;0.85;;;-3275.10;99.50;;;;;;5008605;28;20033;-77
2023/11/26 04:43:47;;;;;;;0.95;0.85;;;-3275.10;99.50;;;;;;5010031;28;20386;-77
2023/11/26 04:46:15;;;;;;;1.40;0.88;;;-3275.10;99.60;;;;;;5007120;28;20030;-77
2023/11/26 04:48:44;;;;;;;1.80;1.20;;;-3275.10;99.50;;;;;;5002844;28;20136;-77
2023/11/26 04:51:10;;;;;;;3.47;0.95;;;-3275.10;99.50;;;;;;5009247;28;20057;-77
2023/11/26 04:53:35;;;;;;;2.00;1.17;;;-3275.10;99.50;;;;;;5008796;28;20038;-77
2023/11/26 04:56:01;;;;;;;3.42;1.30;;;-3275.20;99.50;;;;;;5006559;28;20096;-77
2023/11/26 04:58:27;;;;;;;1.45;1.10;;;-3275.20;99.40;;;;;;5008417;28;20056;-77
2023/11/26 05:00:52;;;;;;;1.98;0.80;;;-3275.20;99.40;;;;;;5006696;28;20042;-77
2023/11/26 05:03:22;;;;;;;1.02;0.90;;;-3275.20;99.40;;;;;;5006043;28;20038;-77
2023/11/26 05:05:47;;;;;;;2.03;1.23;;;-3275.20;99.40;;;;;;5010465;28;20038;-77
2023/11/26 05:08:13;;;;;;;1.85;0.93;;;-3275.30;99.50;;;;;;5026083;28;20033;-77
2023/11/26 05:10:39;;;;;;;1.60;1.17;;;-3275.30;99.40;;;;;;5007856;28;20050;-77
2023/11/26 05:13:04;;;;;;;1.58;1.13;;;-3275.30;99.40;;;;;;5008075;28;20030;-77
2023/11/26 05:15:30;;;;;;;3.05;1.52;;;-3275.30;99.40;;;;;;5010626;28;20489;-77
2023/11/26 05:17:56;;;;;;;1.15;0.77;;;-3275.30;99.40;;;;;;5009641;28;20026;-77
2023/11/26 05:20:22;;;;;;;2.10;1.10;;;-3275.30;99.50;;;;;;5009915;28;20026;-77
2023/11/26 05:22:47;;;;;;;2.38;1.10;;;-3275.30;99.50;;;;;;5013978;28;20031;-77
2023/11/26 05:25:14;;;;;;;1.48;1.00;;;-3275.40;99.40;;;;;;5011670;28;20034;-77
2023/11/26 05:27:39;;;;;;;1.58;1.10;;;-3275.40;99.40;;;;;;5011242;28;20554;-74
2023/11/26 05:30:06;;;;;;;3.22;1.40;;;-3275.30;99.40;;;;;;5004438;28;20121;-73
2023/11/26 05:32:32;;;;;;;1.48;0.98;;;-3275.30;99.30;;;;;;5007298;28;20052;-73
2023/11/26 05:34:58;;;;;;;2.03;0.93;;;-3275.30;99.40;;;;;;5010468;28;20466;-73
2023/11/26 05:37:23;;;;;;;1.20;1.00;;;-3275.30;99.50;;;;;;5013149;28;20034;-74
2023/11/26 05:39:49;;;;;;;2.22;1.15;;;-3275.30;99.50;;;;;;5012068;28;20072;-74
2023/11/26 05:42:14;;;;;;;1.85;1.00;;;-3275.30;99.50;;;;;;5010168;28;20034;-74
2023/11/26 05:44:40;;;;;;;2.33;1.20;;;-3275.30;99.50;;;;;;5011859;28;20041;-74
2023/11/26 05:47:05;;;;;;;2.38;0.95;;;-3275.40;99.50;;;;;;5007677;28;20121;-73
2023/11/26 05:49:31;;;;;;;1.52;0.85;;;-3275.30;99.40;;;;;;5008628;28;20042;-73
2023/11/26 05:51:57;;;;;;;2.03;1.02;;;-3275.30;99.40;;;;;;5012101;28;20599;-73
2023/11/26 05:54:23;;;;;;;1.80;1.02;;;-3275.30;99.40;;;;;;5011497;28;20025;-74
2023/11/26 05:56:50;;;;;;;1.40;0.82;;;-3275.20;99.40;;;;;;5009932;28;20025;-74
2023/11/26 05:59:16;;;;;;;1.63;1.17;;;-3275.20;99.50;;;;;;5010858;28;20084;-74
2023/11/26 06:01:41;;;;;;;2.00;1.10;;;-3275.20;99.50;;;;;;5007540;28;20064;-74
2023/11/26 06:04:07;;;;;;;1.10;0.90;;;-3275.20;99.50;;;;;;5009114;28;20058;-73
2023/11/26 06:06:32;;;;;;;1.38;0.90;;;-3275.20;99.50;;;;;;5012461;28;20038;-74
2023/11/26 06:08:59;;;;;;;1.63;1.17;;;-3275.30;99.50;;;;;;5012852;28;20030;-73
2023/11/26 06:11:24;;;;;;;1.92;1.25;;;-3275.30;99.60;;;;;;5008376;28;20068;-74
2023/11/26 06:13:50;;;;;;;1.88;1.10;;;-3275.30;99.60;;;;;;5009677;28;20037;-74
2023/11/26 06:16:16;;;;;;;1.63;1.00;;;-3275.40;99.60;;;;;;5027034;28;20398;-74
2023/11/26 06:18:41;;;;;;;1.23;0.93;;;-3275.40;99.60;;;;;;5008294;28;20057;-73
2023/11/26 06:21:06;;;;;;;2.85;1.10;;;-3275.40;99.50;;;;;;5017604;28;20417;-73
2023/11/26 06:23:32;;;;;;;2.53;1.42;;;-3275.50;99.60;;;;;;5012285;28;20033;-73
2023/11/26 06:25:58;;;;;;;2.92;1.42;;;-3275.50;99.60;;;;;;5010892;28;20057;-74
2023/11/26 06:28:24;;;;;;;1.10;0.98;;;-3275.60;99.60;;;;;;5010889;28;20120;-73
2023/11/26 06:30:49;;;;;;;3.03;1.15;;;-3275.60;99.50;;;;;;5011403;28;20605;-74
2023/11/26 06:33:15;;;;;;;1.75;1.20;;;-3275.70;99.50;;;;;;5009964;28;20049;-73
2023/11/26 06:35:40;;;;;;;1.58;0.93;;;-3275.70;99.50;;;;;;5010241;28;20474;-74
2023/11/26 06:38:05;;;;;;;2.22;1.17;;;-3275.70;99.50;;;;;;5010116;28;20029;-74
2023/11/26 06:40:31;;;;;;;1.90;1.35;;;-3275.80;99.50;;;;;;5011456;28;20034;-74
2023/11/26 06:42:56;;;;;;;1.65;1.20;;;-3275.80;99.40;;;;;;5008102;28;20060;-73
2023/11/26 06:45:22;;;;;;;1.67;1.13;;;-3275.80;99.50;;;;;;5010126;28;20050;-74
2023/11/26 06:47:47;;;;;;;2.42;1.30;;;-3275.80;99.50;;;;;;5004822;28;20029;-74
2023/11/26 06:50:13;;;;;;;2.10;1.00;;;-3275.80;99.40;;;;;;5026399;28;20054;-75
2023/11/26 06:52:38;;;;;;;1.92;1.10;;;-3275.90;99.50;;;;;;5008025;28;20031;-74
2023/11/26 06:55:05;;;;;;;2.17;1.30;;;-3275.90;99.50;;;;;;5010576;28;20040;-74
2023/11/26 06:57:32;;;;;;;2.35;1.05;;;-3275.90;99.40;;;;;;5009375;28;20387;-74
2023/11/26 06:59:58;;;;;;;1.95;1.15;;;-3275.90;99.40;;;;;;5011421;28;20026;-74
2023/11/26 07:02:24;;;;;;;2.97;1.48;;;-3275.90;99.40;;;;;;5004754;28;20030;-74
2023/11/26 07:04:50;;;;;;;4.57;1.30;;;-3276.00;99.40;;;;;;5008726;28;20104;-74
2023/11/26 07:07:19;;;;;;;1.77;1.30;;;-3276.00;99.40;;;;;;5014794;28;20104;-74
2023/11/26 07:09:44;;;;;;;3.00;1.30;;;-3276.00;99.40;;;;;;5010020;28;20034;-76
2023/11/26 07:12:10;;;;;;;3.67;1.92;;;-3276.00;99.40;;;;;;5008025;28;20048;-76
2023/11/26 07:14:35;;;;;;;2.13;1.33;;;-3276.00;99.30;;;;;;5009092;28;20084;-75
2023/11/26 07:17:01;;;;;;;2.72;1.98;;;-3276.00;99.30;;;;;;5005924;28;20034;-76
2023/11/26 07:19:27;;;;;;;3.45;1.65;;;-3276.00;99.30;;;;;;5008476;28;20041;-76
2023/11/26 07:21:52;;;;;;;3.35;1.80;;;-3276.00;99.20;;;;;;5011467;28;20402;-76
2023/11/26 07:24:18;;;;;;;2.70;1.65;;;-3276.00;99.20;;;;;;5005747;28;20041;-76
2023/11/26 07:26:43;;;;;;;2.42;1.42;;;-3276.00;99.20;;;;;;5002471;28;20543;-76
2023/11/26 07:29:09;;;;;;;3.00;1.73;;;-3276.10;99.20;;;;;;5009755;28;20478;-76
2023/11/26 07:31:34;;;;;;;3.10;1.75;;;-3276.10;99.10;;;;;;5007410;28;20084;-76
2023/11/26 07:33:59;;;;;;;1.17;0.95;;;-3276.00;99.10;;;;;;5006390;28;20526;-76
2023/11/26 07:36:25;;;;;;;4.13;1.63;;;-3276.00;99.10;;;;;;5011227;28;20033;-76
2023/11/26 07:38:53;;;;;;;2.72;1.27;;;-3276.00;99.10;;;;;;5004444;28;20079;-76
2023/11/26 07:41:19;;;;;;;3.45;1.35;;;-3276.00;99.10;;;;;;5013361;28;20030;-76
2023/11/26 07:43:45;;;;;;;1.90;1.33;;;-3276.10;99.10;;;;;;5007832;28;20029;-75
2023/11/26 07:46:12;;;;;;;3.45;1.70;;;-3276.00;99.10;;;;;;5008042;28;20037;-77
2023/11/26 07:48:38;;;;;;;2.88;1.58;;;-3276.10;99.20;;;;;;4999247;28;20034;-78
2023/11/26 07:51:04;;;;;;;2.53;1.48;;;-3276.20;99.10;;;;;;5009780;28;20099;-78
2023/11/26 07:53:33;;;;;;;1.80;1.17;;;-3276.20;99.00;;;;;;5005207;28;20394;-77
2023/11/26 07:56:00;;;;;;;2.00;1.42;;;-3276.20;99.00;;;;;;5012463;28;20060;-77
2023/11/26 07:58:27;;;;;;;3.15;1.45;;;-3276.20;99.00;;;;;;5010400;28;20429;-77
2023/11/26 08:00:53;;;;;;;1.88;1.20;;;-3276.30;99.00;;;;;;5004040;28;20030;-77
2023/11/26 08:03:19;;;;;;;1.98;1.33;;;-3276.30;99.00;;;;;;5001617;28;20399;-76
2023/11/26 08:05:44;;;;;;;2.15;1.40;;;-3276.40;99.00;;;;;;5008929;28;20087;-77
2023/11/26 08:08:11;;;;;;;2.70;1.35;;;-3276.50;99.00;;;;;;5007183;28;20040;-77
2023/11/26 08:10:37;;;;;;;2.55;1.42;;;-3276.60;99.00;;;;;;5008487;28;20038;-75
2023/11/26 08:13:02;;;;;;;2.63;1.50;;;-3276.60;99.00;;;;;;5007696;28;20044;-76
2023/11/26 08:15:28;;;;;;;3.10;1.67;;;-3276.60;98.90;;;;;;5005382;28;20026;-77
2023/11/26 08:17:55;;;;;;;7.93;2.10;;;-3276.70;98.90;;;;;;5002648;28;20084;-77
2023/11/26 08:20:21;;;;;;;7.32;2.97;;;0.00;99.00;;;;;;5009720;28;20100;-77
2023/11/26 08:22:48;;;;;;;7.78;3.90;;;0.00;99.00;;;;;;5009733;28;20025;-76
2023/11/26 08:25:17;;;;;;;6.45;2.90;;;0.00;98.70;;;;;;5007200;28;20034;-77
2023/11/26 08:27:45;;;;;;;4.88;2.38;;;0.00;98.70;;;;;;5006431;28;20405;-77
2023/11/26 08:30:30;;;;;;;2.20;1.13;;;0.00;98.50;;;;;;5003590;28;20187;-77
2023/11/26 08:33:00;;;;;;;2.17;1.20;;;0.00;98.40;;;;;;4996351;28;20026;-76
2023/11/26 08:35:28;;;;;;;2.20;1.45;;;0.10;98.30;;;;;;4998958;28;20109;-73
2023/11/26 08:37:55;;;;;;;1.95;1.17;;;0.10;98.20;;;;;;5009170;28;20033;-73
2023/11/26 08:40:21;;;;;;;2.05;1.00;;;0.10;97.90;;;;;;5010384;28;20164;-73
2023/11/26 08:42:47;;;;;;;1.58;1.10;;;0.20;97.50;;;;;;5006067;28;20033;-73
2023/11/26 08:45:13;;;;;;;2.22;1.20;;;0.10;97.20;;;;;;5010671;28;20030;-73
2023/11/26 08:47:42;;;;;;;1.98;1.20;;;0.20;97.20;;;;;;5006364;28;20360;-73
2023/11/26 08:50:09;;;;;;;1.58;1.15;;;0.30;97.10;;;;;;5009017;28;20081;-73
2023/11/26 08:52:35;;;;;;;1.75;0.93;;;0.30;97.00;;;;;;5012032;28;20118;-73
2023/11/26 08:55:05;;;;;;;2.80;1.40;;;0.30;96.80;;;;;;5013754;28;20021;-73
2023/11/26 08:57:37;;;;;;;2.40;1.38;;;0.40;96.70;;;;;;5006129;28;20260;-73
2023/11/26 09:00:04;;;;;;;2.40;1.20;;;0.40;96.90;;;;;;5025168;28;20477;-73
2023/11/26 09:02:30;;;;;;;1.05;0.85;;;0.50;96.80;;;;;;5007113;28;20445;-73
2023/11/26 09:04:55;;;;;;;2.60;1.50;;;0.40;96.40;;;;;;5011772;28;20107;-73
2023/11/26 09:07:21;;;;;;;1.52;1.08;;;0.50;96.10;;;;;;5017629;28;20076;-73
2023/11/26 09:09:46;;;;;;;1.73;0.82;;;0.50;95.50;;;;;;5012477;28;20038;-73
2023/11/26 09:12:12;;;;;;;1.85;1.13;;;0.50;95.30;;;;;;5006798;28;20120;-73
2023/11/26 09:14:37;;;;;;;1.75;1.05;;;0.50;95.30;;;;;;5013198;28;20030;-73
2023/11/26 09:17:03;;;;;;;1.52;0.82;;;0.60;95.30;;;;;;5011468;28;20033;-73
2023/11/26 09:19:29;;;;;;;1.15;1.00;;;0.60;95.30;;;;;;5007619;28;20202;-73
2023/11/26 09:21:54;;;;;;;1.50;1.00;;;0.70;95.30;;;;;;5011355;28;20045;-74
2023/11/26 09:24:20;;;;;;;1.98;1.33;;;0.70;95.40;;;;;;5014281;28;20433;-73
2023/11/26 09:26:45;;;;;;;1.98;1.15;;;0.80;95.60;;;;;;5012715;28;20105;-73
2023/11/26 09:29:12;;;;;;;1.27;1.00;;;0.80;95.60;;;;;;5003889;28;20447;-72
2023/11/26 09:31:44;;;;;;;2.03;0.98;;;1.00;95.90;;;;;;5000740;28;20040;-72
2023/11/26 09:34:10;;;;;;;1.75;1.00;;;0.90;95.50;;;;;;5000858;28;20856;-72
2023/11/26 09:36:41;;;;;;;2.10;1.17;;;0.90;95.20;;;;;;5004780;28;20030;-70
2023/11/26 09:39:07;;;;;;;1.20;0.80;;;0.90;94.30;;;;;;5006099;28;20037;-71
2023/11/26 09:41:33;;;;;;;1.85;0.95;;;1.00;94.20;;;;;;5003349;28;20371;-73
2023/11/26 09:43:58;;;;;;;1.45;0.82;;;1.00;94.30;;;;;;5005497;28;20374;-73
2023/11/26 09:46:29;;;;;;;1.65;0.90;;;1.00;94.50;;;;;;5004088;28;20493;-73
2023/11/26 09:48:54;;;;;;;2.45;1.33;;;1.10;94.70;;;;;;5001823;28;20022;-73
2023/11/26 09:51:23;;;;;;;1.42;1.00;;;1.10;94.90;;;;;;5004313;28;20072;-73
2023/11/26 09:53:49;;;;;;;2.65;0.88;;;1.10;94.40;;;;;;5004653;28;20029;-73
2023/11/26 09:56:16;;;;;;;1.88;1.02;;;1.10;94.70;;;;;;5000246;28;20062;-73
2023/11/26 09:58:42;;;;;;;1.58;0.95;;;1.10;94.30;;;;;;5003162;28;20025;-74
2023/11/26 10:01:09;;;;;;;1.33;0.93;;;1.20;94.30;;;;;;5001055;28;20475;-74
2023/11/26 10:04:00;;;;;;;1.75;1.15;;;1.20;93.40;;;;;;5000485;28;20501;-74
2023/11/26 10:06:27;;;;;;;1.73;1.33;;;1.20;93.00;;;;;;5003111;28;20037;-74
2023/11/26 10:08:52;;;;;;;3.13;1.30;;;1.30;93.20;;;;;;5005152;28;20033;-75
2023/11/26 10:11:22;;;;;;;1.88;0.98;;;1.30;93.30;;;;;;5001411;28;20030;-75
2023/11/26 10:13:48;;;;;;;2.17;0.98;;;1.30;93.50;;;;;;5004872;28;20041;-74
2023/11/26 10:16:41;;;;;;;0.90;0.73;;;1.40;93.70;;;;;;5001386;28;20033;-74
2023/11/26 10:19:07;;;;;;;0.93;0.77;;;1.30;92.90;;;;;;4997482;28;20045;-74
2023/11/26 10:21:33;;;;;;;1.00;0.77;;;1.30;92.50;;;;;;5001581;28;20022;-75
2023/11/26 10:24:02;;;;;;;1.63;1.02;;;1.20;92.90;;;;;;5005755;28;21118;-75
2023/11/26 10:26:29;;;;;;;1.42;0.98;;;1.20;93.10;;;;;;5001095;28;20029;-75
2023/11/26 10:29:08;;;;;;;1.27;0.98;;;1.30;93.30;;;;;;5003634;28;20120;-75
2023/11/26 10:31:35;;;;;;;1.98;1.13;;;1.30;94.00;;;;;;4998762;28;20025;-75
2023/11/26 10:34:14;;;;;;;0.85;0.68;;;1.40;93.90;;;;;;4999855;28;20034;-74
2023/11/26 10:36:40;;;;;;;1.30;0.77;;;1.50;93.40;;;;;;5002909;28;20065;-75
2023/11/26 10:39:09;;;;;;;1.75;1.20;;;1.40;93.10;;;;;;5004377;28;20034;-74
2023/11/26 10:41:35;;;;;;;4.47;1.50;;;1.50;93.20;;;;;;4999277;28;20072;-74
2023/11/26 10:44:02;;;;;;;1.83;1.30;;;1.50;93.60;;;;;;5003294;28;20018;-72
2023/11/26 10:46:33;;;;;;;2.50;1.17;;;1.60;93.80;;;;;;5000390;28;20112;-74
2023/11/26 10:49:11;;;;;;;2.55;1.13;;;1.60;93.40;;;;;;4998544;28;20026;-73
2023/11/26 10:51:40;;;;;;;1.63;1.00;;;1.60;93.10;;;;;;4998148;28;20053;-76
2023/11/26 10:54:16;;;;;;;1.35;1.00;;;1.60;93.20;;;;;;5002557;28;22997;-79
2023/11/26 10:56:47;;;;;;;1.73;1.20;;;1.70;93.40;;;;;;5001529;28;20040;-74
2023/11/26 10:59:21;;;;;;;1.38;0.70;;;1.70;93.70;;;;;;5003789;28;20030;-81
2023/11/26 11:01:47;;;;;;;1.17;0.70;;;1.60;92.40;;;;;;4998757;28;20054;-73
2023/11/26 11:04:15;;;;;;;1.42;0.77;;;1.60;91.40;;;;;;5000513;28;20026;-73
2023/11/26 11:06:43;;;;;;;1.02;0.73;;;1.60;91.70;;;;;;5002939;28;20624;-73
2023/11/26 11:09:13;;;;;;;0.75;0.70;;;1.70;91.40;;;;;;5003116;28;20499;-73
2023/11/26 11:12:14;;;;;;;1.30;0.70;;;1.80;91.80;;;;;;4999777;28;20033;-73
2023/11/26 11:14:40;;;;;;;3.25;0.82;;;1.90;92.20;;;;;;4982601;28;20104;-73
2023/11/26 11:17:07;;;;;;;2.80;1.10;;;2.10;92.90;;;;;;4999125;28;20038;-74
2023/11/26 11:19:55;;;;;;;1.77;0.75;;;2.10;93.00;;;;;;5006326;28;20050;-73
2023/11/26 11:22:35;;;;;;;0.60;0.60;;;2.10;92.90;;;;;;5000611;28;20060;-73
2023/11/26 11:25:09;;;;;;;1.58;0.90;;;2.10;92.30;;;;;;4999747;28;20041;-75
2023/11/26 11:27:54;;;;;;;1.67;0.80;;;2.20;92.70;;;;;;5001882;28;20087;-76
2023/11/26 11:30:32;;;;;;;1.85;0.80;;;2.10;92.20;;;;;;5002654;28;20049;-75
2023/11/26 11:33:10;;;;;;;1.80;1.08;;;2.10;92.00;;;;;;4998353;28;20030;-74
2023/11/26 11:35:37;;;;;;;0.88;0.63;;;2.10;91.70;;;;;;5001855;28;20108;-73
2023/11/26 11:38:04;;;;;;;1.77;0.95;;;2.10;92.00;;;;;;5000664;28;20057;-75
2023/11/26 11:40:58;;;;;;;3.72;1.13;;;2.20;92.30;;;;;;5003834;28;20041;-74
2023/11/26 11:43:23;;;;;;;2.38;1.15;;;2.20;91.70;;;;;;5003132;28;20115;-82
2023/11/26 11:45:49;;;;;;;0.85;0.70;;;2.10;91.50;;;;;;5001010;28;20033;-73
2023/11/26 11:48:39;;;;;;;1.90;0.80;;;2.20;92.10;;;;;;4997823;28;20049;-75
2023/11/26 11:51:33;;;;;;;2.53;1.30;;;2.20;92.10;;;;;;4998981;28;20060;-75
2023/11/26 11:54:08;;;;;;;1.10;0.70;;;2.20;92.30;;;;;;5004596;28;20112;-74
2023/11/26 11:56:44;;;;;;;2.90;1.38;;;2.20;91.90;;;;;;5001565;28;20052;-75
2023/11/26 11:59:11;;;;;;;1.33;1.05;;;2.10;91.20;;;;;;5004630;28;20129;-75
2023/11/26 12:01:38;;;;;;;1.45;1.10;;;2.10;91.60;;;;;;5001176;28;20034;-74
2023/11/26 12:04:04;;;;;;;2.17;1.27;;;2.10;91.70;;;;;;5000125;28;20041;-75
2023/11/26 12:06:30;;;;;;;2.17;1.10;;;2.10;91.90;;;;;;5002224;28;20034;-74
2023/11/26 12:09:00;;;;;;;1.02;0.90;;;2.10;92.30;;;;;;5000811;28;20084;-74
2023/11/26 12:11:25;;;;;;;1.75;1.10;;;2.10;91.50;;;;;;5002010;28;20084;-74
2023/11/26 12:13:51;;;;;;;2.97;1.20;;;2.10;92.30;;;;;;5007226;28;20042;-78
2023/11/26 12:16:20;;;;;;;3.40;1.10;;;2.20;92.40;;;;;;5000946;28;20025;-76
2023/11/26 12:18:46;;;;;;;1.38;1.05;;;2.10;92.30;;;;;;4998644;28;20268;-74
2023/11/26 12:21:12;;;;;;;2.33;1.05;;;2.10;92.50;;;;;;4998658;28;20062;-75
2023/11/26 12:23:41;;;;;;;2.72;1.38;;;2.10;92.60;;;;;;4998840;28;20022;-74
2023/11/26 12:26:07;;;;;;;3.58;1.23;;;2.10;92.50;;;;;;5003306;28;20063;-75
2023/11/26 12:28:47;;;;;;;2.60;1.00;;;2.10;92.70;;;;;;5005499;28;20037;-75
2023/11/26 12:31:13;;;;;;;2.30;1.15;;;2.10;92.50;;;;;;5006865;28;20037;-75
2023/11/26 12:33:43;;;;;;;2.00;1.17;;;2.10;93.00;;;;;;5005803;28;20028;-74
2023/11/26 12:36:18;;;;;;;2.22;1.45;;;2.00;92.50;;;;;;4998575;28;20048;-75